createdAt,value
2024-03-26T00:05:34.621Z,-0.55
2024-03-26T00:15:38.133Z,-0.61
2024-03-26T00:25:41.339Z,-0.75
2024-03-26T00:35:45.075Z,-0.89
2024-03-26T00:45:50.942Z,-1.04
2024-03-26T00:55:53.973Z,-1.17
2024-03-26T01:05:57.942Z,-1.33
2024-03-26T01:16:01.202Z,-1.43
2024-03-26T01:26:04.880Z,-1.26
2024-03-26T01:36:08.640Z,-0.96
2024-03-26T01:46:12.543Z,-0.66
2024-03-26T01:56:18.731Z,-0.40
2024-03-26T02:06:22.286Z,-0.14
2024-03-26T02:16:25.603Z,0.11
2024-03-26T02:26:28.999Z,0.29
2024-03-26T02:36:32.180Z,0.40
2024-03-26T02:46:35.763Z,0.49
2024-03-26T02:56:39.087Z,0.55
2024-03-26T03:06:42.192Z,0.62
2024-03-26T03:16:45.272Z,0.61
2024-03-26T03:26:49.383Z,0.56
2024-03-26T03:36:52.745Z,0.50
2024-03-26T03:46:56.223Z,0.39
2024-03-26T03:56:59.192Z,0.16
2024-03-26T04:07:02.582Z,-0.01
2024-03-26T04:17:06.274Z,-0.09
2024-03-26T04:27:11.836Z,-0.09
2024-03-26T04:37:15.007Z,-0.09
2024-03-26T04:47:18.115Z,-0.15
2024-03-26T04:57:22.851Z,-0.23
2024-03-26T05:07:26.049Z,-0.23
2024-03-26T05:17:29.798Z,-0.24
2024-03-26T05:27:32.877Z,-0.09
2024-03-26T05:37:37.934Z,0.08
2024-03-26T05:47:41.104Z,0.27
2024-03-26T05:57:46.327Z,0.38
2024-03-26T06:07:49.408Z,0.65
2024-03-26T06:17:52.622Z,1.03
2024-03-26T06:27:55.954Z,1.27
2024-03-26T06:37:59.609Z,1.57
2024-03-26T06:48:02.540Z,1.97
2024-03-26T06:58:06.013Z,2.40
2024-03-26T07:08:09.236Z,2.93
2024-03-26T07:18:12.559Z,3.22
2024-03-26T07:28:16.309Z,3.58
2024-03-26T07:38:19.516Z,4.05
2024-03-26T07:48:23.073Z,4.76
2024-03-26T07:58:26.337Z,5.69
2024-03-26T08:08:29.370Z,5.62
2024-03-26T08:18:32.482Z,5.48
2024-03-26T08:28:35.727Z,5.68
2024-03-26T08:38:41.444Z,6.30
2024-03-26T08:48:45.597Z,7.16
2024-03-26T08:58:52.955Z,9.06
2024-03-26T09:08:56.112Z,10.01
2024-03-26T09:19:01.600Z,10.35
2024-03-26T09:29:06.699Z,10.30
2024-03-26T09:39:10.243Z,9.59
2024-03-26T09:49:20.263Z,9.08
2024-03-26T09:59:24.740Z,8.86
2024-03-26T10:09:28.784Z,8.68
2024-03-26T10:19:31.954Z,8.58
2024-03-26T10:29:37.789Z,8.46
2024-03-26T10:39:45.471Z,8.37
2024-03-26T10:49:48.171Z,8.38
2024-03-26T10:59:52.333Z,8.54
2024-03-26T11:10:05.316Z,8.58
2024-03-26T11:20:16.908Z,8.82
2024-03-26T11:30:20.361Z,9.07
2024-03-26T11:40:23.818Z,9.17
2024-03-26T11:50:27.204Z,9.34
2024-03-26T12:00:30.511Z,9.47
2024-03-26T12:10:33.830Z,9.69
2024-03-26T12:20:37.703Z,9.85
2024-03-26T12:30:40.842Z,10.05
2024-03-26T12:40:44.194Z,10.26
2024-03-26T12:50:47.524Z,10.35
2024-03-26T13:00:50.620Z,10.45
2024-03-26T13:10:53.984Z,10.64
2024-03-26T13:20:57.364Z,10.79
2024-03-26T13:31:01.439Z,10.88
2024-03-26T13:41:05.223Z,10.91
2024-03-26T13:51:09.525Z,10.90
2024-03-26T14:01:12.857Z,11.00
2024-03-26T14:11:16.229Z,11.09
2024-03-26T14:21:19.496Z,11.19
2024-03-26T14:31:23.955Z,11.31
2024-03-26T14:41:27.111Z,11.44
2024-03-26T14:51:30.327Z,11.50
2024-03-26T15:01:33.604Z,11.49
2024-03-26T15:11:37.129Z,11.54
2024-03-26T15:21:40.426Z,11.58
2024-03-26T15:32:01.805Z,11.52
2024-03-26T15:42:06.340Z,11.40
2024-03-26T15:52:09.424Z,11.35
2024-03-26T16:02:17.531Z,11.25
2024-03-26T16:12:22.610Z,11.13
2024-03-26T16:22:25.959Z,10.95
2024-03-26T16:32:30.636Z,10.72
2024-03-26T16:42:33.900Z,10.47
2024-03-26T16:52:39.502Z,10.19
2024-03-26T17:02:42.956Z,9.90
2024-03-26T17:12:46.165Z,9.61
2024-03-26T17:22:51.466Z,9.33
2024-03-26T17:32:56.305Z,9.11
2024-03-26T17:42:59.619Z,8.88
2024-03-26T17:53:03.230Z,8.66
2024-03-26T18:03:07.906Z,8.45
2024-03-26T18:13:12.121Z,8.31
2024-03-26T18:23:15.587Z,8.16
2024-03-26T18:33:18.691Z,8.04
2024-03-26T18:43:22.851Z,7.98
2024-03-26T18:53:26.441Z,7.90
2024-03-26T19:03:34.622Z,7.89
2024-03-26T19:13:39.994Z,7.83
2024-03-26T19:23:43.174Z,7.71
2024-03-26T19:33:48.326Z,7.61
2024-03-26T19:43:51.966Z,7.49
2024-03-26T19:53:57.241Z,7.37
2024-03-26T20:04:00.434Z,7.26
2024-03-26T20:14:05.118Z,7.20
2024-03-26T20:24:09.393Z,7.11
2024-03-26T20:34:13.248Z,7.04
2024-03-26T20:44:18.408Z,6.97
2024-03-26T20:54:21.752Z,6.91
2024-03-26T21:04:25.191Z,6.84
2024-03-26T21:14:28.767Z,6.80
2024-03-26T21:24:32.306Z,6.75
2024-03-26T21:34:37.652Z,6.68
2024-03-26T21:44:41.007Z,6.61
2024-03-26T21:54:47.208Z,6.52
2024-03-26T22:04:51.158Z,6.41
2024-03-26T22:14:54.813Z,6.30
2024-03-26T22:24:58.410Z,6.17
2024-03-26T22:35:01.972Z,6.03
2024-03-26T22:45:07.543Z,5.89
2024-03-26T22:55:11.154Z,5.74
2024-03-26T23:05:14.770Z,5.61
2024-03-26T23:15:18.459Z,5.50
2024-03-26T23:25:22.033Z,5.41
2024-03-26T23:35:25.515Z,5.34
2024-03-26T23:45:28.969Z,5.26
2024-03-26T23:55:32.541Z,5.11
